Time;durP1;ratioP1;P1;durP2;ratioP2;P2;SDS_P1;SDS_P2;PMS_P1;PMS_P2;Temp;Humidity;BMP_temperature;BMP_pressure;BME280_temperature;BME280_humidity;BME280_pressure;Samples;Min_cycle;Max_cycle;Signal;HPM_P1;HPM_P2
2022/03/14 00:01:59;;;;;;;2.60;1.63;;;;;;;;;;5026046;28;20220;-66
2022/03/14 00:04:25;;;;;;;1.98;1.50;;;;;;;;;;5024841;28;20600;-66
2022/03/14 00:06:51;;;;;;;1.95;1.38;;;;;;;;;;5022811;28;20206;-66
2022/03/14 00:09:17;;;;;;;1.88;1.60;;;;;;;;;;5027158;28;20705;-66
2022/03/14 00:11:43;;;;;;;2.45;1.70;;;;;;;;;;5035101;28;20189;-66
2022/03/14 00:14:09;;;;;;;2.25;1.60;;;;;;;;;;5030972;28;20182;-66
2022/03/14 00:16:46;;;;;;;4.55;1.95;;;;;;;;;;5036850;28;20204;-67
2022/03/14 00:19:12;;;;;;;4.22;1.92;;;;;;;;;;5040798;28;20169;-67
2022/03/14 00:21:39;;;;;;;2.92;2.03;;;;;;;;;;5031089;28;20193;-67
2022/03/14 00:24:05;;;;;;;3.63;1.92;;;;;;;;;;5038146;28;20229;-67
2022/03/14 00:26:31;;;;;;;3.00;1.90;;;;;;;;;;5018394;28;20642;-67
2022/03/14 00:28:56;;;;;;;3.33;2.03;;;;;;;;;;5024645;28;20188;-66
2022/03/14 00:31:22;;;;;;;3.25;1.95;;;;;;;;;;5013864;28;20207;-65
2022/03/14 00:33:48;;;;;;;5.15;2.17;;;;;;;;;;5027054;28;20189;-66
2022/03/14 00:36:13;;;;;;;2.97;1.95;;;;;;;;;;5016973;28;20241;-66
2022/03/14 00:38:39;;;;;;;2.53;1.63;;;;;;;;;;5021355;28;20217;-66
2022/03/14 00:41:06;;;;;;;2.22;1.70;;;;;;;;;;5022584;28;20609;-66
2022/03/14 00:43:33;;;;;;;2.47;1.92;;;;;;;;;;5025866;28;20424;-66
2022/03/14 00:45:59;;;;;;;2.80;1.88;;;;;;;;;;5019565;28;20534;-66
2022/03/14 00:48:24;;;;;;;3.40;2.10;;;;;;;;;;5026048;28;20268;-67
2022/03/14 00:50:50;;;;;;;5.22;2.60;;;;;;;;;;5039268;28;20260;-67
2022/03/14 00:53:15;;;;;;;5.90;2.58;;;;;;;;;;5035251;28;20243;-67
2022/03/14 00:55:41;;;;;;;4.32;2.63;;;;;;;;;;5034611;28;20178;-66
2022/03/14 00:58:07;;;;;;;4.35;2.30;;;;;;;;;;5026264;28;20248;-66
2022/03/14 01:00:32;;;;;;;4.25;2.20;;;;;;;;;;5023536;28;20183;-66
2022/03/14 01:02:59;;;;;;;2.95;1.90;;;;;;;;;;5016028;28;20243;-66
2022/03/14 01:05:25;;;;;;;2.38;1.65;;;;;;;;;;5025020;28;20230;-67
2022/03/14 01:07:50;;;;;;;2.67;1.80;;;;;;;;;;5022479;28;20249;-66
2022/03/14 01:10:16;;;;;;;3.33;1.80;;;;;;;;;;5024438;28;20317;-66
2022/03/14 01:12:41;;;;;;;2.75;1.73;;;;;;;;;;5011473;28;20187;-67
2022/03/14 01:15:08;;;;;;;2.75;1.90;;;;;;;;;;5037419;28;20228;-66
2022/03/14 01:17:33;;;;;;;4.10;1.80;;;;;;;;;;5032951;28;20194;-66
2022/03/14 01:19:58;;;;;;;4.13;1.75;;;;;;;;;;5028268;28;20189;-66
2022/03/14 01:22:24;;;;;;;2.17;1.70;;;;;;;;;;5031795;28;20220;-66
2022/03/14 01:24:49;;;;;;;2.17;1.60;;;;;;;;;;5036335;28;20562;-66
2022/03/14 01:27:14;;;;;;;2.05;1.60;;;;;;;;;;5026479;28;20182;-66
2022/03/14 01:29:40;;;;;;;2.97;2.10;;;;;;;;;;5022671;28;20249;-67
2022/03/14 01:32:07;;;;;;;2.60;1.85;;;;;;;;;;5032407;28;20273;-67
2022/03/14 01:34:33;;;;;;;2.20;1.65;;;;;;;;;;5025858;28;20178;-67
2022/03/14 01:36:58;;;;;;;2.78;2.08;;;;;;;;;;5032676;28;20190;-67
2022/03/14 01:39:24;;;;;;;2.75;2.00;;;;;;;;;;5033188;28;20182;-66
2022/03/14 01:41:50;;;;;;;2.60;1.83;;;;;;;;;;5025077;28;20654;-67
2022/03/14 01:44:15;;;;;;;2.03;1.65;;;;;;;;;;5029181;28;20202;-66
2022/03/14 01:46:42;;;;;;;2.55;1.92;;;;;;;;;;5029436;28;20670;-66
2022/03/14 01:49:07;;;;;;;4.63;2.13;;;;;;;;;;5031633;28;20182;-66
2022/03/14 01:51:34;;;;;;;3.20;1.75;;;;;;;;;;5022675;28;20186;-66
2022/03/14 01:53:59;;;;;;;3.20;2.17;;;;;;;;;;5031610;28;20205;-66
2022/03/14 01:56:26;;;;;;;2.70;2.10;;;;;;;;;;5018945;28;20545;-66
2022/03/14 01:58:52;;;;;;;2.63;2.00;;;;;;;;;;5032086;28;20177;-65
2022/03/14 02:01:19;;;;;;;3.97;2.28;;;;;;;;;;5027358;28;20680;-66
2022/03/14 02:03:44;;;;;;;2.70;1.85;;;;;;;;;;5021876;28;20252;-66
2022/03/14 02:06:10;;;;;;;3.38;2.20;;;;;;;;;;5025201;28;20182;-66
2022/03/14 02:08:36;;;;;;;4.28;2.38;;;;;;;;;;5026163;28;20228;-66
2022/03/14 02:11:02;;;;;;;3.92;2.63;;;;;;;;;;5033334;28;20269;-66
2022/03/14 02:13:28;;;;;;;3.50;2.20;;;;;;;;;;5025780;28;20276;-67
2022/03/14 02:15:53;;;;;;;5.13;2.70;;;;;;;;;;5040073;28;20532;-67
2022/03/14 02:18:18;;;;;;;3.47;2.10;;;;;;;;;;5026197;28;20198;-67
2022/03/14 02:20:44;;;;;;;6.00;2.28;;;;;;;;;;5018645;28;20183;-67
2022/03/14 02:23:10;;;;;;;2.85;2.20;;;;;;;;;;5024867;28;20217;-66
2022/03/14 02:25:35;;;;;;;3.60;2.25;;;;;;;;;;5028460;28;20796;-66
2022/03/14 02:28:02;;;;;;;2.92;2.30;;;;;;;;;;5030626;28;20544;-66
2022/03/14 02:30:28;;;;;;;3.55;2.10;;;;;;;;;;5034709;28;20585;-67
2022/03/14 02:32:53;;;;;;;2.03;1.60;;;;;;;;;;5028169;28;20243;-67
2022/03/14 02:35:19;;;;;;;1.70;1.60;;;;;;;;;;5021506;28;20178;-67
2022/03/14 02:37:44;;;;;;;3.70;2.08;;;;;;;;;;5026661;28;20178;-67
2022/03/14 02:40:10;;;;;;;2.30;1.80;;;;;;;;;;5026697;28;20186;-67
2022/03/14 02:42:35;;;;;;;2.55;1.98;;;;;;;;;;5034010;28;20188;-67
2022/03/14 02:45:02;;;;;;;3.88;1.88;;;;;;;;;;5036042;28;20208;-67
2022/03/14 02:47:28;;;;;;;1.75;1.65;;;;;;;;;;5019878;28;20587;-67
2022/03/14 02:49:53;;;;;;;2.97;1.90;;;;;;;;;;5021904;28;20186;-67
2022/03/14 02:52:18;;;;;;;3.72;2.22;;;;;;;;;;5034038;28;20193;-67
2022/03/14 02:54:44;;;;;;;3.75;1.88;;;;;;;;;;5031567;28;20637;-67
2022/03/14 02:57:09;;;;;;;2.65;1.80;;;;;;;;;;5029259;28;20604;-67
2022/03/14 02:59:35;;;;;;;3.30;2.20;;;;;;;;;;5027823;28;20184;-67
2022/03/14 03:02:01;;;;;;;2.55;1.60;;;;;;;;;;5026509;28;20233;-67
2022/03/14 03:04:26;;;;;;;2.83;1.70;;;;;;;;;;5014721;28;20202;-66
2022/03/14 03:06:54;;;;;;;2.00;1.80;;;;;;;;;;5021957;28;20260;-67
2022/03/14 03:09:20;;;;;;;2.33;1.83;;;;;;;;;;5027827;28;20229;-67
2022/03/14 03:11:45;;;;;;;3.15;2.00;;;;;;;;;;5020662;28;20241;-67
2022/03/14 03:14:10;;;;;;;2.47;1.83;;;;;;;;;;5019310;28;20182;-66
2022/03/14 03:16:36;;;;;;;2.22;1.70;;;;;;;;;;5019832;28;20215;-66
2022/03/14 03:19:01;;;;;;;2.30;1.70;;;;;;;;;;5015717;28;20189;-66
2022/03/14 03:21:27;;;;;;;3.83;1.92;;;;;;;;;;5039567;28;20760;-66
2022/03/14 03:23:53;;;;;;;2.72;1.90;;;;;;;;;;5040391;28;20181;-67
2022/03/14 03:26:19;;;;;;;2.65;1.90;;;;;;;;;;5029353;28;20179;-67
2022/03/14 03:28:44;;;;;;;2.60;1.90;;;;;;;;;;5026257;28;20676;-67
2022/03/14 03:31:17;;;;;;;4.35;1.88;;;;;;;;;;5027372;28;20206;-67
2022/03/14 03:33:43;;;;;;;2.95;1.67;;;;;;;;;;5031457;28;20348;-67
2022/03/14 03:36:08;;;;;;;2.88;1.95;;;;;;;;;;5033469;28;20187;-67
2022/03/14 03:38:34;;;;;;;2.15;1.70;;;;;;;;;;5034491;28;20240;-67
2022/03/14 03:41:00;;;;;;;3.55;1.90;;;;;;;;;;5028800;28;20524;-67
2022/03/14 03:43:25;;;;;;;3.20;1.98;;;;;;;;;;5029910;28;20621;-67
2022/03/14 03:45:50;;;;;;;2.38;2.00;;;;;;;;;;5024320;28;20678;-66
2022/03/14 03:48:16;;;;;;;2.60;1.92;;;;;;;;;;5039141;28;20221;-67
2022/03/14 03:50:41;;;;;;;2.90;2.13;;;;;;;;;;5027594;28;20178;-67
2022/03/14 03:53:07;;;;;;;2.53;1.80;;;;;;;;;;5026369;28;20548;-66
2022/03/14 03:55:33;;;;;;;2.88;2.10;;;;;;;;;;5035765;28;20548;-66
2022/03/14 03:57:58;;;;;;;3.70;1.88;;;;;;;;;;5019359;28;20543;-67
2022/03/14 04:00:24;;;;;;;3.30;2.17;;;;;;;;;;5027151;28;20555;-67
2022/03/14 04:02:50;;;;;;;2.15;1.95;;;;;;;;;;5027522;28;20190;-67
2022/03/14 04:05:16;;;;;;;3.05;2.03;;;;;;;;;;5022116;28;20541;-67
2022/03/14 04:07:42;;;;;;;3.17;2.30;;;;;;;;;;5026950;28;20276;-66
2022/03/14 04:10:09;;;;;;;2.20;1.80;;;;;;;;;;5026024;28;20190;-66
2022/03/14 04:12:40;;;;;;;2.92;2.10;;;;;;;;;;5012326;28;20191;-67
2022/03/14 04:15:09;;;;;;;3.05;2.25;;;;;;;;;;5019867;28;20174;-67
2022/03/14 04:17:38;;;;;;;2.97;2.25;;;;;;;;;;5016683;28;20177;-66
2022/03/14 04:20:06;;;;;;;3.22;2.40;;;;;;;;;;5021913;28;20182;-67
2022/03/14 04:22:32;;;;;;;5.22;2.25;;;;;;;;;;5023574;28;20277;-66
2022/03/14 04:24:59;;;;;;;7.95;2.40;;;;;;;;;;5030982;28;20277;-66
2022/03/14 04:27:25;;;;;;;2.92;2.17;;;;;;;;;;5023990;28;20528;-67
2022/03/14 04:29:50;;;;;;;3.47;2.47;;;;;;;;;;5023758;28;20189;-67
2022/03/14 04:32:15;;;;;;;5.38;2.38;;;;;;;;;;5025274;28;20198;-67
2022/03/14 04:34:41;;;;;;;4.45;2.85;;;;;;;;;;5041651;28;20544;-68
2022/03/14 04:37:07;;;;;;;5.32;2.60;;;;;;;;;;5029936;28;20253;-66
2022/03/14 04:39:33;;;;;;;3.95;2.67;;;;;;;;;;5035153;28;20193;-66
2022/03/14 04:41:59;;;;;;;4.78;2.63;;;;;;;;;;5033639;28;20551;-67
2022/03/14 04:44:24;;;;;;;4.50;2.90;;;;;;;;;;5044069;28;20948;-67
2022/03/14 04:46:49;;;;;;;5.93;2.70;;;;;;;;;;5039989;28;20200;-67
2022/03/14 04:49:15;;;;;;;4.05;3.05;;;;;;;;;;5044487;28;20177;-67
2022/03/14 04:51:40;;;;;;;5.82;3.10;;;;;;;;;;5044741;28;20186;-67
2022/03/14 04:54:06;;;;;;;4.63;2.90;;;;;;;;;;5042060;28;20209;-67
2022/03/14 04:56:32;;;;;;;5.63;3.28;;;;;;;;;;5033622;28;20286;-67
2022/03/14 04:58:57;;;;;;;4.38;3.20;;;;;;;;;;5020613;28;20707;-67
2022/03/14 05:01:23;;;;;;;5.88;3.38;;;;;;;;;;5032795;28;20182;-67
2022/03/14 05:03:50;;;;;;;6.20;3.60;;;;;;;;;;5026089;28;20555;-67
2022/03/14 05:06:16;;;;;;;4.97;3.10;;;;;;;;;;5034577;28;20181;-67
2022/03/14 05:08:42;;;;;;;4.93;2.88;;;;;;;;;;5019780;28;20316;-67
2022/03/14 05:11:09;;;;;;;4.75;3.13;;;;;;;;;;5030368;28;20274;-68
2022/03/14 05:13:35;;;;;;;3.83;2.88;;;;;;;;;;5024776;28;20193;-66
2022/03/14 05:16:00;;;;;;;4.55;3.05;;;;;;;;;;5023627;28;20339;-67
2022/03/14 05:18:25;;;;;;;5.20;3.17;;;;;;;;;;5018519;28;20278;-68
2022/03/14 05:20:51;;;;;;;5.10;3.28;;;;;;;;;;5034949;28;20640;-68
2022/03/14 05:23:16;;;;;;;5.95;3.40;;;;;;;;;;5041635;28;20221;-67
2022/03/14 05:25:41;;;;;;;8.10;4.32;;;;;;;;;;5033641;28;20209;-68
2022/03/14 05:28:07;;;;;;;8.57;3.95;;;;;;;;;;5025876;28;20658;-68
2022/03/14 05:30:32;;;;;;;5.47;3.45;;;;;;;;;;5029789;28;20202;-68
2022/03/14 05:32:58;;;;;;;6.35;3.85;;;;;;;;;;5027811;28;20242;-68
2022/03/14 05:35:23;;;;;;;5.25;3.50;;;;;;;;;;5032612;28;20714;-68
2022/03/14 05:37:48;;;;;;;8.48;3.85;;;;;;;;;;5031519;28;20183;-68
2022/03/14 05:40:17;;;;;;;6.57;3.95;;;;;;;;;;5043862;28;20307;-68
2022/03/14 05:42:45;;;;;;;5.30;3.42;;;;;;;;;;5025583;28;20197;-69
2022/03/14 05:45:10;;;;;;;5.85;3.97;;;;;;;;;;5027356;28;20352;-70
2022/03/14 05:47:36;;;;;;;6.22;3.88;;;;;;;;;;5025086;28;20655;-70
2022/03/14 05:50:01;;;;;;;4.82;3.47;;;;;;;;;;5026965;28;20185;-71
2022/03/14 05:52:27;;;;;;;5.50;3.78;;;;;;;;;;5026139;28;20198;-71
2022/03/14 05:54:53;;;;;;;6.28;3.63;;;;;;;;;;5031596;28;20216;-71
2022/03/14 05:57:18;;;;;;;6.43;3.97;;;;;;;;;;5025566;28;20345;-72
2022/03/14 05:59:44;;;;;;;5.63;3.65;;;;;;;;;;5024787;28;20174;-70
2022/03/14 06:02:10;;;;;;;6.10;3.53;;;;;;;;;;5028043;28;20182;-72
2022/03/14 06:04:35;;;;;;;5.13;3.65;;;;;;;;;;5019859;28;20218;-73
2022/03/14 06:07:01;;;;;;;9.48;3.78;;;;;;;;;;5034322;28;20258;-71
2022/03/14 06:09:28;;;;;;;5.75;4.07;;;;;;;;;;5024016;28;20808;-72
2022/03/14 06:11:53;;;;;;;6.25;4.30;;;;;;;;;;5032309;28;20575;-72
2022/03/14 06:14:20;;;;;;;7.47;4.68;;;;;;;;;;5026416;28;20198;-71
2022/03/14 06:16:45;;;;;;;7.05;4.28;;;;;;;;;;5028455;28;20178;-71
2022/03/14 06:19:10;;;;;;;7.45;4.55;;;;;;;;;;5016981;28;20622;-72
2022/03/14 06:21:38;;;;;;;6.65;4.45;;;;;;;;;;5029139;28;20185;-71
2022/03/14 06:24:04;;;;;;;7.97;4.90;;;;;;;;;;5041560;28;20189;-71
2022/03/14 06:26:29;;;;;;;8.00;5.03;;;;;;;;;;5038473;28;20189;-70
2022/03/14 06:28:54;;;;;;;7.95;4.75;;;;;;;;;;5038638;28;20190;-69
2022/03/14 06:31:21;;;;;;;8.07;4.50;;;;;;;;;;5045621;28;20201;-71
2022/03/14 06:33:49;;;;;;;7.50;5.10;;;;;;;;;;5038391;28;20291;-71
2022/03/14 06:36:14;;;;;;;6.80;4.57;;;;;;;;;;5039803;28;20264;-70
2022/03/14 06:38:39;;;;;;;7.95;5.47;;;;;;;;;;5028033;28;20465;-70
2022/03/14 06:41:05;;;;;;;8.73;5.38;;;;;;;;;;5023450;28;20378;-70
2022/03/14 06:43:33;;;;;;;7.82;5.22;;;;;;;;;;5028252;28;20592;-70
2022/03/14 06:45:58;;;;;;;7.75;5.38;;;;;;;;;;5040028;28;20209;-70
2022/03/14 06:48:24;;;;;;;7.28;5.10;;;;;;;;;;5040670;28;20612;-70
2022/03/14 06:50:49;;;;;;;9.05;6.13;;;;;;;;;;5040606;28;20460;-70
2022/03/14 06:53:15;;;;;;;9.25;5.63;;;;;;;;;;5027380;28;20194;-70
2022/03/14 06:55:40;;;;;;;7.60;5.40;;;;;;;;;;5028649;28;20185;-70
2022/03/14 06:58:05;;;;;;;9.52;5.88;;;;;;;;;;5027414;28;20189;-68
2022/03/14 07:00:31;;;;;;;7.63;5.50;;;;;;;;;;5038931;28;20199;-70
2022/03/14 07:02:56;;;;;;;10.50;5.38;;;;;;;;;;5037351;28;20267;-69
2022/03/14 07:05:24;;;;;;;10.90;7.57;;;;;;;;;;5037133;28;20441;-69
2022/03/14 07:07:50;;;;;;;11.93;7.05;;;;;;;;;;5036247;28;20273;-69
2022/03/14 07:10:16;;;;;;;11.45;6.57;;;;;;;;;;5033608;28;20197;-69
2022/03/14 07:12:46;;;;;;;8.68;5.65;;;;;;;;;;5040177;28;20561;-69
2022/03/14 07:15:13;;;;;;;10.05;5.97;;;;;;;;;;5039013;28;20541;-69
2022/03/14 07:17:38;;;;;;;7.20;5.47;;;;;;;;;;5040615;28;20284;-68
2022/03/14 07:20:04;;;;;;;9.57;5.90;;;;;;;;;;5028252;28;20633;-68
2022/03/14 07:22:30;;;;;;;7.88;5.57;;;;;;;;;;5030587;28;20190;-68
2022/03/14 07:24:55;;;;;;;8.10;5.82;;;;;;;;;;5030940;28;20255;-68
2022/03/14 07:27:21;;;;;;;9.10;5.88;;;;;;;;;;5024425;28;20285;-68
2022/03/14 07:29:46;;;;;;;9.20;5.90;;;;;;;;;;5029510;28;20185;-68
2022/03/14 07:32:11;;;;;;;8.65;6.20;;;;;;;;;;5028851;28;20260;-69
2022/03/14 07:34:37;;;;;;;9.60;6.75;;;;;;;;;;5037946;28;20192;-69
2022/03/14 07:37:02;;;;;;;8.90;6.22;;;;;;;;;;5030664;28;20189;-70
2022/03/14 07:39:29;;;;;;;8.63;6.70;;;;;;;;;;5015167;28;20182;-70
2022/03/14 07:41:55;;;;;;;9.90;7.15;;;;;;;;;;5036331;28;20637;-69
2022/03/14 07:44:21;;;;;;;12.40;8.00;;;;;;;;;;5038165;28;20221;-69
2022/03/14 07:46:47;;;;;;;11.18;7.57;;;;;;;;;;5030447;28;20194;-68
2022/03/14 07:49:14;;;;;;;11.95;7.90;;;;;;;;;;5035060;28;20190;-68
2022/03/14 07:51:39;;;;;;;11.05;8.05;;;;;;;;;;5033882;28;20193;-68
2022/03/14 07:54:05;;;;;;;14.05;9.00;;;;;;;;;;5038273;28;20181;-68
2022/03/14 07:56:30;;;;;;;10.85;8.27;;;;;;;;;;5042234;28;20284;-68
2022/03/14 07:58:55;;;;;;;13.85;9.07;;;;;;;;;;5038806;28;20193;-68
2022/03/14 08:01:21;;;;;;;13.40;9.40;;;;;;;;;;5043234;28;20181;-68
2022/03/14 08:03:46;;;;;;;14.77;9.52;;;;;;;;;;5035961;28;20178;-69
2022/03/14 08:06:17;;;;;;;13.40;9.55;;;;;;;;;;5040856;28;20276;-68
2022/03/14 08:08:43;;;;;;;14.38;10.02;;;;;;;;;;5036982;28;20284;-69
2022/03/14 08:11:08;;;;;;;14.73;10.20;;;;;;;;;;5033636;28;20201;-69
2022/03/14 08:13:34;;;;;;;15.43;10.55;;;;;;;;;;5022977;28;20193;-69
2022/03/14 08:15:59;;;;;;;14.88;10.57;;;;;;;;;;5035385;28;20193;-69
2022/03/14 08:18:25;;;;;;;16.23;10.82;;;;;;;;;;5027422;28;20677;-69
2022/03/14 08:20:56;;;;;;;16.52;10.45;;;;;;;;;;5023417;28;20193;-68
2022/03/14 08:23:21;;;;;;;15.50;10.73;;;;;;;;;;5029693;28;20242;-68
2022/03/14 08:25:47;;;;;;;18.05;11.65;;;;;;;;;;5019850;28;20213;-69
2022/03/14 08:28:12;;;;;;;16.35;10.98;;;;;;;;;;5040825;28;20759;-67
2022/03/14 08:30:39;;;;;;;16.98;11.30;;;;;;;;;;5042823;28;20201;-68
2022/03/14 08:33:05;;;;;;;17.00;11.32;;;;;;;;;;5037052;28;20182;-68
2022/03/14 08:35:32;;;;;;;16.67;11.23;;;;;;;;;;5039257;28;20174;-67
2022/03/14 08:37:57;;;;;;;17.08;11.48;;;;;;;;;;5043714;28;20189;-69
2022/03/14 08:40:25;;;;;;;18.25;11.75;;;;;;;;;;5044390;28;20653;-69
2022/03/14 08:42:53;;;;;;;17.23;11.32;;;;;;;;;;5039601;28;20270;-68
2022/03/14 08:45:19;;;;;;;19.55;11.50;;;;;;;;;;5040057;28;20569;-68
2022/03/14 08:47:45;;;;;;;16.02;10.50;;;;;;;;;;5036664;28;20181;-68
2022/03/14 08:50:11;;;;;;;19.77;12.50;;;;;;;;;;5041957;28;20192;-68
2022/03/14 08:52:37;;;;;;;21.17;12.07;;;;;;;;;;5042965;28;20265;-68
2022/03/14 08:55:03;;;;;;;18.00;11.88;;;;;;;;;;5042391;28;20888;-68
2022/03/14 08:57:28;;;;;;;17.30;11.20;;;;;;;;;;5044065;28;20209;-68
2022/03/14 08:59:54;;;;;;;19.40;12.68;;;;;;;;;;5040443;28;20209;-68
2022/03/14 09:02:20;;;;;;;20.50;12.38;;;;;;;;;;5041489;28;20181;-67
2022/03/14 09:04:45;;;;;;;22.55;12.98;;;;;;;;;;5041693;28;20271;-68
2022/03/14 09:07:10;;;;;;;23.13;12.93;;;;;;;;;;5042896;28;20286;-68
2022/03/14 09:09:36;;;;;;;19.67;12.05;;;;;;;;;;5039592;28;20309;-67
2022/03/14 09:12:02;;;;;;;17.92;11.57;;;;;;;;;;5044979;28;20260;-67
2022/03/14 09:14:27;;;;;;;19.52;12.40;;;;;;;;;;5040623;28;20190;-67
2022/03/14 09:16:53;;;;;;;19.27;12.60;;;;;;;;;;5040951;28;20180;-67
2022/03/14 09:19:18;;;;;;;19.17;12.02;;;;;;;;;;5042860;28;20186;-67
2022/03/14 09:21:45;;;;;;;18.90;11.27;;;;;;;;;;5035157;28;20194;-68
2022/03/14 09:24:10;;;;;;;21.02;12.48;;;;;;;;;;5030480;28;20186;-68
2022/03/14 09:26:38;;;;;;;20.25;12.75;;;;;;;;;;5028489;28;20182;-68
2022/03/14 09:29:04;;;;;;;18.60;11.65;;;;;;;;;;5029423;28;20194;-69
2022/03/14 09:31:30;;;;;;;20.67;12.57;;;;;;;;;;5031988;28;20661;-68
2022/03/14 09:33:56;;;;;;;19.92;12.40;;;;;;;;;;5040409;28;20202;-68
2022/03/14 09:36:22;;;;;;;20.00;12.20;;;;;;;;;;5047408;28;20178;-68
2022/03/14 09:38:47;;;;;;;18.27;12.32;;;;;;;;;;5044176;28;20177;-68
2022/03/14 09:41:17;;;;;;;21.50;12.75;;;;;;;;;;5044561;28;20192;-68
2022/03/14 09:43:46;;;;;;;22.23;12.77;;;;;;;;;;5044378;28;20205;-68
2022/03/14 09:46:12;;;;;;;18.05;12.70;;;;;;;;;;5045891;28;20628;-68
2022/03/14 09:48:45;;;;;;;17.33;12.30;;;;;;;;;;5045264;28;20534;-68
2022/03/14 09:51:10;;;;;;;19.35;12.45;;;;;;;;;;5039909;28;20567;-68
2022/03/14 09:53:36;;;;;;;18.20;12.05;;;;;;;;;;5046086;28;20256;-68
2022/03/14 09:56:02;;;;;;;21.40;12.30;;;;;;;;;;5041360;28;20186;-66
2022/03/14 09:58:27;;;;;;;18.88;11.88;;;;;;;;;;5043215;28;20250;-67
2022/03/14 10:00:53;;;;;;;20.88;11.88;;;;;;;;;;5045420;28;20190;-67
2022/03/14 10:03:20;;;;;;;21.63;12.45;;;;;;;;;;5041368;28;20190;-67
2022/03/14 10:05:46;;;;;;;18.08;11.52;;;;;;;;;;5043599;28;20213;-68
2022/03/14 10:08:12;;;;;;;18.30;11.65;;;;;;;;;;5043255;28;20765;-68
2022/03/14 10:10:39;;;;;;;17.80;10.85;;;;;;;;;;5040584;28;20799;-69
2022/03/14 10:13:10;;;;;;;17.83;10.95;;;;;;;;;;5045721;28;20265;-68
2022/03/14 10:15:37;;;;;;;15.30;10.77;;;;;;;;;;5035939;28;20250;-67
2022/03/14 10:18:16;;;;;;;16.33;10.70;;;;;;;;;;5045070;28;20203;-68
2022/03/14 10:21:05;;;;;;;18.50;10.73;;;;;;;;;;5036676;28;20185;-67
2022/03/14 10:23:35;;;;;;;15.73;10.20;;;;;;;;;;5045108;28;20231;-67
2022/03/14 10:26:01;;;;;;;16.02;10.52;;;;;;;;;;5043525;28;20247;-67
2022/03/14 10:28:31;;;;;;;16.67;10.68;;;;;;;;;;5047496;28;20213;-67
2022/03/14 10:31:00;;;;;;;17.45;10.43;;;;;;;;;;5044892;28;20589;-67
2022/03/14 10:33:28;;;;;;;16.42;10.38;;;;;;;;;;5038272;28;20273;-68
2022/03/14 10:35:55;;;;;;;17.38;9.68;;;;;;;;;;5040875;28;20274;-68
2022/03/14 10:38:21;;;;;;;15.55;10.48;;;;;;;;;;5028655;28;20197;-68
2022/03/14 10:40:47;;;;;;;15.10;10.18;;;;;;;;;;5043665;28;20185;-67
2022/03/14 10:43:32;;;;;;;18.00;10.07;;;;;;;;;;5045365;28;20258;-68
2022/03/14 10:45:59;;;;;;;16.75;10.23;;;;;;;;;;5043468;28;20270;-68
2022/03/14 10:48:31;;;;;;;16.92;10.30;;;;;;;;;;5043205;28;20193;-68
2022/03/14 10:51:02;;;;;;;18.38;10.02;;;;;;;;;;5041639;28;20198;-67
2022/03/14 10:53:27;;;;;;;16.67;9.90;;;;;;;;;;5043004;28;20183;-67
2022/03/14 10:55:58;;;;;;;18.17;10.63;;;;;;;;;;5041917;28;20170;-67
2022/03/14 10:58:33;;;;;;;16.23;9.45;;;;;;;;;;5044909;28;20721;-68
2022/03/14 11:01:01;;;;;;;14.35;9.10;;;;;;;;;;5041316;28;20204;-68
2022/03/14 11:03:31;;;;;;;16.23;9.55;;;;;;;;;;5045364;28;20184;-68
2022/03/14 11:06:02;;;;;;;17.58;10.55;;;;;;;;;;5041681;28;20543;-67
2022/03/14 11:08:37;;;;;;;17.95;9.27;;;;;;;;;;5038544;28;20753;-67
2022/03/14 11:11:16;;;;;;;17.20;10.95;;;;;;;;;;5042421;28;20536;-67
2022/03/14 11:13:43;;;;;;;17.73;10.55;;;;;;;;;;5042182;28;20188;-67
2022/03/14 11:16:19;;;;;;;17.88;11.27;;;;;;;;;;5045954;28;20679;-67
2022/03/14 11:18:45;;;;;;;16.67;10.90;;;;;;;;;;5035547;28;20185;-67
2022/03/14 11:21:15;;;;;;;16.67;11.02;;;;;;;;;;5042320;28;20264;-68
2022/03/14 11:23:43;;;;;;;16.42;11.05;;;;;;;;;;5045407;28;20637;-67
2022/03/14 11:26:12;;;;;;;19.58;11.05;;;;;;;;;;5036928;28;20226;-67
2022/03/14 11:28:40;;;;;;;18.92;10.82;;;;;;;;;;5045619;28;20264;-67
2022/03/14 11:31:06;;;;;;;16.05;9.23;;;;;;;;;;5041255;28;20209;-67
2022/03/14 11:33:35;;;;;;;15.23;9.68;;;;;;;;;;5042567;28;20246;-66
2022/03/14 11:36:01;;;;;;;16.88;8.48;;;;;;;;;;5041329;28;20249;-67
2022/03/14 11:38:28;;;;;;;17.42;9.30;;;;;;;;;;5046046;28;20181;-67
2022/03/14 11:40:54;;;;;;;21.02;9.35;;;;;;;;;;5044304;28;20256;-67
2022/03/14 11:43:19;;;;;;;15.10;8.57;;;;;;;;;;5041020;28;20193;-67
2022/03/14 11:45:46;;;;;;;17.80;8.70;;;;;;;;;;5044226;28;20201;-66
2022/03/14 11:48:13;;;;;;;17.45;8.40;;;;;;;;;;5041849;28;20185;-67
2022/03/14 11:50:42;;;;;;;15.80;8.68;;;;;;;;;;5043597;28;20185;-67
2022/03/14 11:53:08;;;;;;;16.85;8.45;;;;;;;;;;5040862;28;20227;-66
2022/03/14 11:55:34;;;;;;;17.73;9.35;;;;;;;;;;5040244;28;20221;-67
2022/03/14 11:57:59;;;;;;;14.88;8.85;;;;;;;;;;5045141;28;20170;-67
2022/03/14 12:00:27;;;;;;;19.30;9.30;;;;;;;;;;5043741;28;20248;-67
2022/03/14 12:02:55;;;;;;;15.68;9.40;;;;;;;;;;5043602;28;20181;-67
2022/03/14 12:05:33;;;;;;;15.20;9.75;;;;;;;;;;5034988;28;20224;-67
2022/03/14 12:07:59;;;;;;;17.83;9.98;;;;;;;;;;5043593;28;20234;-67
2022/03/14 12:10:32;;;;;;;14.93;9.70;;;;;;;;;;5038244;28;20291;-68
2022/03/14 12:12:58;;;;;;;16.85;9.40;;;;;;;;;;5044458;28;20667;-67
2022/03/14 12:15:37;;;;;;;17.90;8.93;;;;;;;;;;5040700;28;20177;-67
2022/03/14 12:18:25;;;;;;;15.98;9.77;;;;;;;;;;5041171;28;20185;-67
2022/03/14 12:21:03;;;;;;;16.75;9.98;;;;;;;;;;5036555;28;20513;-67
2022/03/14 12:23:33;;;;;;;20.00;9.90;;;;;;;;;;5041069;28;20283;-66
2022/03/14 12:25:59;;;;;;;21.00;10.18;;;;;;;;;;5024959;28;20202;-66
2022/03/14 12:28:26;;;;;;;16.15;9.50;;;;;;;;;;5032723;28;20178;-66
2022/03/14 12:31:15;;;;;;;19.40;9.95;;;;;;;;;;5033975;28;20218;-66
2022/03/14 12:33:46;;;;;;;17.17;9.10;;;;;;;;;;5034247;28;20272;-66
2022/03/14 12:36:22;;;;;;;15.82;9.55;;;;;;;;;;5029393;28;20246;-67
2022/03/14 12:39:18;;;;;;;21.83;9.52;;;;;;;;;;5027845;28;20186;-67
2022/03/14 12:41:43;;;;;;;20.58;10.27;;;;;;;;;;5016966;28;20186;-67
2022/03/14 12:44:20;;;;;;;15.57;9.77;;;;;;;;;;5029628;28;20185;-67
2022/03/14 12:46:47;;;;;;;21.38;9.57;;;;;;;;;;5023645;28;20195;-66
2022/03/14 12:49:26;;;;;;;18.10;8.70;;;;;;;;;;5029330;28;20566;-66
2022/03/14 12:52:14;;;;;;;15.70;8.23;;;;;;;;;;5016718;28;20638;-66
2022/03/14 12:54:41;;;;;;;12.65;7.47;;;;;;;;;;5037787;28;20188;-66
2022/03/14 12:57:07;;;;;;;15.43;7.03;;;;;;;;;;5020790;28;20268;-66
2022/03/14 12:59:34;;;;;;;16.95;7.20;;;;;;;;;;5031217;28;20680;-67
2022/03/14 13:01:59;;;;;;;12.63;7.25;;;;;;;;;;5024772;28;20641;-66
2022/03/14 13:04:24;;;;;;;15.40;6.85;;;;;;;;;;5039385;28;20247;-66
2022/03/14 13:06:51;;;;;;;15.82;7.75;;;;;;;;;;5022009;28;20273;-66
2022/03/14 13:09:31;;;;;;;16.08;8.10;;;;;;;;;;5040527;28;20714;-66
2022/03/14 13:11:58;;;;;;;11.35;6.60;;;;;;;;;;5032817;28;20190;-66
2022/03/14 13:14:24;;;;;;;15.48;7.03;;;;;;;;;;5040187;28;20259;-66
2022/03/14 13:16:55;;;;;;;13.57;6.78;;;;;;;;;;5039514;28;20605;-66
2022/03/14 13:19:25;;;;;;;12.20;6.80;;;;;;;;;;5035682;28;20233;-66
2022/03/14 13:21:51;;;;;;;13.48;5.55;;;;;;;;;;5025676;28;20209;-65
2022/03/14 13:24:17;;;;;;;15.10;5.95;;;;;;;;;;5032481;28;20986;-67
2022/03/14 13:26:48;;;;;;;12.27;6.00;;;;;;;;;;5034710;28;20276;-67
2022/03/14 13:29:14;;;;;;;14.77;6.03;;;;;;;;;;5042412;28;20186;-66
2022/03/14 13:31:43;;;;;;;14.98;6.72;;;;;;;;;;5038339;28;21537;-67
2022/03/14 13:34:11;;;;;;;13.75;6.25;;;;;;;;;;5029628;28;20178;-67
2022/03/14 13:36:42;;;;;;;14.82;6.65;;;;;;;;;;5030976;28;20260;-66
2022/03/14 13:39:10;;;;;;;13.48;5.97;;;;;;;;;;5036657;28;20242;-66
2022/03/14 13:41:37;;;;;;;14.43;6.00;;;;;;;;;;5031052;28;20186;-66
2022/03/14 13:44:04;;;;;;;12.50;5.78;;;;;;;;;;5029138;28;20217;-67
2022/03/14 13:46:31;;;;;;;14.70;5.85;;;;;;;;;;5023814;28;20248;-65
2022/03/14 13:49:02;;;;;;;14.93;5.97;;;;;;;;;;5035452;28;20194;-65
2022/03/14 13:51:37;;;;;;;12.27;5.50;;;;;;;;;;5028487;28;20641;-66
2022/03/14 13:54:05;;;;;;;12.38;5.47;;;;;;;;;;5016133;28;20663;-66
2022/03/14 13:56:32;;;;;;;13.07;5.60;;;;;;;;;;5032227;28;20204;-67
2022/03/14 13:58:57;;;;;;;11.80;6.15;;;;;;;;;;5041316;28;20666;-67
2022/03/14 14:01:41;;;;;;;18.70;5.80;;;;;;;;;;5031839;28;20488;-67
2022/03/14 14:04:10;;;;;;;10.98;5.25;;;;;;;;;;5032436;28;20226;-67
2022/03/14 14:06:44;;;;;;;10.57;4.97;;;;;;;;;;5036128;28;20272;-67
2022/03/14 14:09:17;;;;;;;16.77;5.82;;;;;;;;;;5026844;28;20311;-67
2022/03/14 14:11:58;;;;;;;13.88;4.80;;;;;;;;;;5032825;28;20228;-67
2022/03/14 14:14:28;;;;;;;6.95;4.20;;;;;;;;;;5031745;28;20566;-67
2022/03/14 14:17:20;;;;;;;10.10;4.15;;;;;;;;;;5024005;28;20291;-66
2022/03/14 14:20:06;;;;;;;10.90;4.90;;;;;;;;;;5012298;28;20178;-67
2022/03/14 14:22:44;;;;;;;10.27;5.43;;;;;;;;;;5042128;28;20181;-66
2022/03/14 14:25:13;;;;;;;13.25;4.63;;;;;;;;;;5040615;28;20570;-67
2022/03/14 14:28:00;;;;;;;11.02;4.40;;;;;;;;;;5026560;28;20645;-67
2022/03/14 14:30:43;;;;;;;14.50;5.03;;;;;;;;;;5051428;28;20730;-67
2022/03/14 14:33:20;;;;;;;10.13;4.65;;;;;;;;;;5034274;28;20192;-67
2022/03/14 14:35:56;;;;;;;9.63;4.07;;;;;;;;;;5033174;28;20170;-67